Time;durP1;ratioP1;P1;durP2;ratioP2;P2;SDS_P1;SDS_P2;PMS_P1;PMS_P2;Temp;Humidity;BMP_temperature;BMP_pressure;BME280_temperature;BME280_humidity;BME280_pressure;Samples;Min_cycle;Max_cycle;Signal;HPM_P1;HPM_P2
2022/07/28 00:00:09;;;;;;;15.20;7.13;;;;;;;;;;5109606;28;20032;-71
2022/07/28 00:04:24;;;;;;;13.10;7.72;;;;;;;;;;5111246;27;20416;-72
2022/07/28 00:06:50;;;;;;;10.50;7.72;;;;;;;;;;5126768;28;20432;-72
2022/07/28 00:09:16;;;;;;;12.85;8.00;;;;;;;;;;5111182;28;20024;-72
2022/07/28 00:11:42;;;;;;;9.10;6.28;;;;;;;;;;5111187;28;20028;-72
2022/07/28 00:14:09;;;;;;;10.30;6.68;;;;;;;;;;5110679;28;20020;-71
2022/07/28 00:16:53;;;;;;;10.00;7.47;;;;;;;;;;5111983;27;20446;-73
2022/07/28 00:19:19;;;;;;;9.50;6.97;;;;;;;;;;5111344;28;20024;-72
2022/07/28 00:24:58;;;;;;;9.65;7.40;;;;;;;;;;5111709;27;20113;-72
2022/07/28 00:27:24;;;;;;;12.23;7.18;;;;;;;;;;5090586;28;20025;-74
2022/07/28 00:29:51;;;;;;;10.48;7.32;;;;;;;;;;5089610;28;20039;-73
2022/07/28 00:32:17;;;;;;;11.18;7.35;;;;;;;;;;5090886;28;20103;-73
2022/07/28 00:35:13;;;;;;;11.68;6.80;;;;;;;;;;5111379;27;20389;-72
2022/07/28 00:37:39;;;;;;;10.80;7.80;;;;;;;;;;5111581;28;20023;-72
2022/07/28 00:40:06;;;;;;;11.70;7.50;;;;;;;;;;5111593;28;20091;-72
2022/07/28 00:42:32;;;;;;;11.45;7.80;;;;;;;;;;5110858;28;20493;-72
2022/07/28 00:45:34;;;;;;;10.50;7.30;;;;;;;;;;5111436;27;20458;-72
2022/07/28 00:48:59;;;;;;;12.35;8.52;;;;;;;;;;5111437;27;20401;-72
2022/07/28 00:51:26;;;;;;;10.90;8.68;;;;;;;;;;5109973;28;20069;-72
2022/07/28 00:54:35;;;;;;;14.40;8.55;;;;;;;;;;5173449;27;20114;-71
2022/07/28 00:57:01;;;;;;;12.05;8.75;;;;;;;;;;5152081;27;20420;-72
2022/07/28 00:59:28;;;;;;;13.30;9.75;;;;;;;;;;5152516;27;20023;-72
2022/07/28 01:01:54;;;;;;;14.13;9.80;;;;;;;;;;5152321;27;20040;-72
2022/07/28 01:04:21;;;;;;;18.13;10.45;;;;;;;;;;5151911;27;20105;-72
2022/07/28 01:09:41;;;;;;;13.57;9.60;;;;;;;;;;5111074;27;20400;-71
2022/07/28 01:12:14;;;;;;;12.63;9.52;;;;;;;;;;5111284;28;20032;-71
2022/07/28 01:15:01;;;;;;;13.18;9.20;;;;;;;;;;5111294;28;20020;-71
2022/07/28 01:17:44;;;;;;;10.40;8.02;;;;;;;;;;5110284;28;20432;-71
2022/07/28 01:20:13;;;;;;;13.93;9.82;;;;;;;;;;5111154;28;20024;-71
2022/07/28 01:22:41;;;;;;;14.35;8.50;;;;;;;;;;5110007;28;20085;-72
2022/07/28 01:25:20;;;;;;;14.07;10.52;;;;;;;;;;5110681;28;20019;-72
2022/07/28 01:28:04;;;;;;;14.27;9.48;;;;;;;;;;5110914;28;20483;-72
2022/07/28 01:30:41;;;;;;;12.82;9.30;;;;;;;;;;5110543;28;20437;-72
2022/07/28 01:36:27;;;;;;;12.75;10.18;;;;;;;;;;5111447;27;20465;-72
2022/07/28 01:38:54;;;;;;;11.73;9.25;;;;;;;;;;5110842;28;20028;-72
2022/07/28 01:41:24;;;;;;;13.00;9.35;;;;;;;;;;5111323;28;20019;-72
2022/07/28 01:44:11;;;;;;;12.60;9.23;;;;;;;;;;5111217;28;20020;-72
2022/07/28 01:46:38;;;;;;;12.35;10.18;;;;;;;;;;5110559;28;20030;-71
2022/07/28 01:49:05;;;;;;;12.50;9.52;;;;;;;;;;5111123;28;20027;-71
2022/07/28 01:51:33;;;;;;;12.80;9.10;;;;;;;;;;5109335;28;20043;-71
2022/07/28 01:56:04;;;;;;;13.43;10.23;;;;;;;;;;5132157;27;20112;-71
2022/07/28 01:58:30;;;;;;;11.63;8.95;;;;;;;;;;5110844;28;20020;-72
2022/07/28 02:02:36;;;;;;;13.75;10.43;;;;;;;;;;5111757;27;20404;-72
2022/07/28 02:05:03;;;;;;;17.30;9.27;;;;;;;;;;5109928;28;20024;-72
2022/07/28 02:07:30;;;;;;;13.60;9.32;;;;;;;;;;5110848;28;20081;-72
2022/07/28 02:09:57;;;;;;;13.52;9.60;;;;;;;;;;5111155;28;20503;-72
2022/07/28 02:12:24;;;;;;;13.43;9.05;;;;;;;;;;5109746;28;20452;-72
2022/07/28 02:14:51;;;;;;;14.15;9.00;;;;;;;;;;5109430;28;20437;-72
2022/07/28 02:17:20;;;;;;;13.13;9.88;;;;;;;;;;5109739;28;20485;-72
2022/07/28 02:19:47;;;;;;;14.85;10.35;;;;;;;;;;5110830;28;20066;-72
2022/07/28 02:22:13;;;;;;;14.50;11.52;;;;;;;;;;5110938;28;20479;-72
2022/07/28 02:24:40;;;;;;;20.48;10.77;;;;;;;;;;5110916;28;20028;-72
2022/07/28 02:27:13;;;;;;;15.55;9.68;;;;;;;;;;5109189;28;20080;-72
2022/07/28 02:29:44;;;;;;;13.60;10.70;;;;;;;;;;5109890;28;20019;-72
2022/07/28 02:35:22;;;;;;;14.45;10.13;;;;;;;;;;5111109;27;20431;-72
2022/07/28 02:37:51;;;;;;;14.35;10.45;;;;;;;;;;5110154;28;20064;-72
2022/07/28 02:42:27;;;;;;;19.50;11.07;;;;;;;;;;5090783;27;20471;-73
2022/07/28 02:49:45;;;;;;;15.05;12.23;;;;;;;;;;5110942;27;20393;-72
2022/07/28 02:52:12;;;;;;;13.57;11.38;;;;;;;;;;5111559;28;20051;-72
2022/07/28 02:56:42;;;;;;;15.68;12.48;;;;;;;;;;5111055;27;20389;-73
2022/07/28 02:59:09;;;;;;;16.38;11.05;;;;;;;;;;5109994;28;20031;-72
2022/07/28 03:01:36;;;;;;;13.43;10.63;;;;;;;;;;5109959;28;20028;-72
2022/07/28 03:04:02;;;;;;;13.77;10.30;;;;;;;;;;5110912;28;20028;-72
2022/07/28 03:06:28;;;;;;;13.20;9.77;;;;;;;;;;5111168;28;20086;-72
2022/07/28 03:08:55;;;;;;;13.93;9.80;;;;;;;;;;5110659;28;20024;-72
2022/07/28 03:12:28;;;;;;;11.50;9.20;;;;;;;;;;5111472;27;20876;-72
2022/07/28 03:14:54;;;;;;;12.95;9.30;;;;;;;;;;5111294;28;20053;-72
2022/07/28 03:17:21;;;;;;;11.32;8.95;;;;;;;;;;5110795;28;20069;-72
2022/07/28 03:19:47;;;;;;;10.98;8.60;;;;;;;;;;5111603;28;20059;-73
2022/07/28 03:22:14;;;;;;;11.98;9.15;;;;;;;;;;5109892;28;20028;-72
2022/07/28 03:25:51;;;;;;;13.85;10.02;;;;;;;;;;5112026;27;20814;-72
2022/07/28 03:28:35;;;;;;;13.05;9.15;;;;;;;;;;5132953;27;20437;-71
2022/07/28 03:32:03;;;;;;;13.35;9.93;;;;;;;;;;5110931;27;20469;-72
2022/07/28 03:34:29;;;;;;;15.70;9.93;;;;;;;;;;5109972;28;20028;-72
2022/07/28 03:37:14;;;;;;;1094.82;641.40;;;;;;;;;;5111123;27;20752;-73
2022/07/28 03:39:45;;;;;;;1109.15;651.03;;;;;;;;;;5111152;28;20101;-72
2022/07/28 03:42:12;;;;;;;1126.00;617.20;;;;;;;;;;5111214;28;20024;-73
2022/07/28 03:44:39;;;;;;;1109.70;615.53;;;;;;;;;;5109542;28;20026;-72
2022/07/28 03:47:05;;;;;;;1130.25;596.70;;;;;;;;;;5111391;28;20020;-72
2022/07/28 03:51:40;;;;;;;1113.20;598.85;;;;;;;;;;5111042;27;20430;-72
2022/07/28 03:54:06;;;;;;;1103.63;614.15;;;;;;;;;;5109938;28;20403;-72
2022/07/28 03:58:20;;;;;;;1123.38;600.53;;;;;;;;;;5111110;27;20396;-72
2022/07/28 04:02:10;;;;;;;1120.82;614.78;;;;;;;;;;5112024;27;20393;-72
2022/07/28 04:04:37;;;;;;;1148.50;569.30;;;;;;;;;;5111278;28;20102;-72
2022/07/28 04:07:28;;;;;;;348.67;194.93;;;;;;;;;;5111654;27;20388;-72
2022/07/28 04:09:54;;;;;;;11.10;7.90;;;;;;;;;;5109950;28;20392;-72
2022/07/28 04:13:35;;;;;;;12.60;9.77;;;;;;;;;;5111089;27;20423;-72
2022/07/28 04:16:02;;;;;;;13.57;10.80;;;;;;;;;;5111154;28;20450;-72
2022/07/28 04:18:28;;;;;;;15.50;11.13;;;;;;;;;;5109952;28;20073;-72
2022/07/28 04:20:57;;;;;;;14.68;10.52;;;;;;;;;;5110811;28;20548;-72
2022/07/28 04:23:23;;;;;;;13.70;10.38;;;;;;;;;;5111118;28;20487;-72
2022/07/28 04:25:49;;;;;;;13.57;9.88;;;;;;;;;;5109936;28;20141;-72
2022/07/28 04:28:16;;;;;;;14.80;11.15;;;;;;;;;;5110713;28;20068;-72
2022/07/28 04:30:42;;;;;;;14.25;10.55;;;;;;;;;;5109687;28;20111;-72
2022/07/28 04:33:08;;;;;;;13.43;10.68;;;;;;;;;;5110650;28;20386;-72
2022/07/28 04:35:35;;;;;;;14.00;10.77;;;;;;;;;;5111132;28;20023;-72
2022/07/28 04:38:01;;;;;;;13.45;10.45;;;;;;;;;;5109587;28;20181;-73
2022/07/28 04:40:28;;;;;;;15.85;11.45;;;;;;;;;;5110469;28;20031;-72
2022/07/28 04:42:54;;;;;;;13.00;10.23;;;;;;;;;;5110794;28;20098;-72
2022/07/28 04:47:23;;;;;;;13.52;9.93;;;;;;;;;;5111386;27;20416;-72
2022/07/28 04:51:40;;;;;;;11.45;8.50;;;;;;;;;;5071050;28;20396;-72
2022/07/28 04:54:06;;;;;;;13.77;9.88;;;;;;;;;;5070751;28;20027;-72
2022/07/28 04:59:41;;;;;;;13.13;9.70;;;;;;;;;;5071287;28;20972;-72
2022/07/28 05:02:08;;;;;;;15.63;11.18;;;;;;;;;;5070347;28;20033;-73
2022/07/28 05:04:34;;;;;;;12.90;10.13;;;;;;;;;;5071258;28;20090;-72
2022/07/28 05:07:01;;;;;;;14.25;9.85;;;;;;;;;;5070607;28;20101;-72
2022/07/28 05:09:27;;;;;;;12.65;9.55;;;;;;;;;;5070116;28;20032;-71
2022/07/28 05:13:32;;;;;;;12.95;8.85;;;;;;;;;;5071521;28;20914;-72
2022/07/28 05:15:58;;;;;;;10.93;7.32;;;;;;;;;;5070325;28;20481;-71
2022/07/28 05:18:25;;;;;;;12.75;8.07;;;;;;;;;;5070785;28;20154;-71
2022/07/28 05:20:51;;;;;;;10.48;7.90;;;;;;;;;;5071090;28;20455;-71
2022/07/28 05:23:17;;;;;;;12.40;8.18;;;;;;;;;;5070107;28;20029;-71
2022/07/28 05:25:43;;;;;;;11.45;7.75;;;;;;;;;;5069226;28;20388;-72
2022/07/28 05:28:09;;;;;;;12.52;8.48;;;;;;;;;;5069267;28;20024;-72
2022/07/28 05:31:03;;;;;;;10.70;8.15;;;;;;;;;;5110930;27;20450;-71
2022/07/28 05:33:29;;;;;;;12.98;9.25;;;;;;;;;;5109908;28;20043;-71
2022/07/28 05:37:40;;;;;;;10.35;7.50;;;;;;;;;;5111213;27;20458;-71
2022/07/28 05:40:12;;;;;;;9.88;6.35;;;;;;;;;;5111325;28;20028;-71
2022/07/28 05:42:39;;;;;;;10.17;6.80;;;;;;;;;;5109978;28;20046;-71
2022/07/28 05:45:07;;;;;;;9.63;6.15;;;;;;;;;;5110874;28;20024;-71
2022/07/28 05:47:45;;;;;;;8.13;5.40;;;;;;;;;;5109833;28;20024;-71
2022/07/28 05:50:12;;;;;;;9.63;6.07;;;;;;;;;;5111330;28;20130;-71
2022/07/28 05:52:38;;;;;;;10.68;6.13;;;;;;;;;;5110671;28;20019;-71
2022/07/28 05:56:37;;;;;;;10.45;6.15;;;;;;;;;;5112034;27;20772;-71
2022/07/28 05:59:07;;;;;;;10.95;6.75;;;;;;;;;;5111053;28;20028;-71
2022/07/28 06:01:35;;;;;;;8.40;5.57;;;;;;;;;;5111227;28;20016;-71
2022/07/28 06:04:01;;;;;;;9.25;6.68;;;;;;;;;;5111337;28;20024;-71
2022/07/28 06:06:28;;;;;;;9.27;5.65;;;;;;;;;;5126612;28;20024;-71
2022/07/28 06:08:54;;;;;;;7.57;5.25;;;;;;;;;;5111243;28;20364;-71
2022/07/28 06:11:20;;;;;;;8.30;6.13;;;;;;;;;;5111524;28;20024;-71
2022/07/28 06:13:47;;;;;;;7.97;5.97;;;;;;;;;;5110711;28;20012;-71
2022/07/28 06:17:51;;;;;;;7.57;5.38;;;;;;;;;;5111951;27;20420;-72
2022/07/28 06:20:43;;;;;;;8.75;5.47;;;;;;;;;;5111069;27;21002;-71
2022/07/28 06:23:10;;;;;;;11.52;6.80;;;;;;;;;;5111326;28;20106;-71
2022/07/28 06:25:36;;;;;;;9.50;6.32;;;;;;;;;;5109940;28;20028;-71
2022/07/28 06:29:29;;;;;;;9.77;6.25;;;;;;;;;;5111717;27;20117;-71
2022/07/28 06:33:19;;;;;;;10.52;6.45;;;;;;;;;;5111420;27;20401;-72
2022/07/28 06:35:46;;;;;;;8.73;6.90;;;;;;;;;;5111533;28;20024;-71
2022/07/28 06:38:12;;;;;;;8.23;5.85;;;;;;;;;;5111233;28;20020;-71
2022/07/28 06:40:38;;;;;;;10.25;6.28;;;;;;;;;;5110907;28;20095;-71
2022/07/28 06:45:00;;;;;;;10.88;6.75;;;;;;;;;;5071337;28;20415;-72
2022/07/28 06:47:26;;;;;;;9.82;6.30;;;;;;;;;;5070324;28;20108;-72
2022/07/28 06:49:52;;;;;;;8.98;5.78;;;;;;;;;;5070943;28;20025;-72
2022/07/28 06:52:19;;;;;;;10.25;6.15;;;;;;;;;;5070653;28;20473;-72
2022/07/28 06:57:00;;;;;;;8.85;6.32;;;;;;;;;;5111958;27;20389;-72
2022/07/28 06:59:26;;;;;;;10.35;6.68;;;;;;;;;;5111350;28;20106;-72
2022/07/28 07:01:52;;;;;;;10.45;6.25;;;;;;;;;;5110827;28;20100;-71
2022/07/28 07:04:19;;;;;;;10.25;7.20;;;;;;;;;;5110241;28;20077;-71
2022/07/28 07:06:45;;;;;;;13.85;7.53;;;;;;;;;;5109842;28;20526;-71
2022/07/28 07:09:11;;;;;;;12.63;7.38;;;;;;;;;;5110733;28;20034;-72
2022/07/28 07:11:37;;;;;;;10.65;7.32;;;;;;;;;;5108485;28;20061;-71
2022/07/28 07:14:03;;;;;;;10.38;6.80;;;;;;;;;;5109862;28;20027;-72
2022/07/28 07:16:38;;;;;;;9.32;6.70;;;;;;;;;;5110958;27;20405;-72
2022/07/28 07:23:12;;;;;;;9.40;6.05;;;;;;;;;;5110990;27;20389;-71
2022/07/28 07:25:38;;;;;;;11.10;6.03;;;;;;;;;;5111140;28;20023;-71
2022/07/28 07:28:04;;;;;;;9.07;6.40;;;;;;;;;;5111017;28;20103;-71
2022/07/28 07:30:30;;;;;;;14.98;7.93;;;;;;;;;;5110773;28;20042;-72
2022/07/28 07:32:56;;;;;;;11.40;8.13;;;;;;;;;;5110969;28;20020;-72
2022/07/28 07:37:41;;;;;;;11.57;6.75;;;;;;;;;;5070322;28;20399;-72
2022/07/28 07:40:08;;;;;;;9.65;6.22;;;;;;;;;;5052568;28;20032;-72
2022/07/28 07:43:16;;;;;;;10.27;7.22;;;;;;;;;;5110841;27;20388;-73
2022/07/28 07:45:42;;;;;;;10.25;6.90;;;;;;;;;;5111082;28;20116;-72
2022/07/28 07:48:08;;;;;;;8.90;6.00;;;;;;;;;;5109766;28;20107;-73
2022/07/28 07:50:34;;;;;;;8.60;5.65;;;;;;;;;;5110725;28;20394;-73
2022/07/28 07:53:00;;;;;;;8.15;5.65;;;;;;;;;;5111019;28;20020;-71
2022/07/28 07:55:27;;;;;;;9.48;6.43;;;;;;;;;;5110935;28;20425;-71
2022/07/28 07:57:53;;;;;;;9.32;5.95;;;;;;;;;;5110534;28;20016;-71
2022/07/28 08:00:20;;;;;;;9.23;6.47;;;;;;;;;;5111015;28;20077;-71
2022/07/28 08:02:46;;;;;;;9.48;6.35;;;;;;;;;;5110739;28;20115;-71
2022/07/28 08:05:12;;;;;;;10.13;6.75;;;;;;;;;;5109074;28;20016;-70
2022/07/28 08:07:39;;;;;;;10.18;6.30;;;;;;;;;;5110955;28;20027;-71
2022/07/28 08:10:06;;;;;;;11.15;6.15;;;;;;;;;;5110811;28;20024;-71
2022/07/28 08:12:32;;;;;;;8.57;6.20;;;;;;;;;;5108858;28;20060;-71
2022/07/28 08:14:59;;;;;;;8.50;5.30;;;;;;;;;;5109122;28;20031;-70
2022/07/28 08:17:25;;;;;;;8.75;6.05;;;;;;;;;;5110517;28;20112;-72
2022/07/28 08:19:51;;;;;;;9.80;6.65;;;;;;;;;;5109932;28;20065;-72
2022/07/28 08:22:32;;;;;;;8.45;6.20;;;;;;;;;;5111220;27;20127;-73
2022/07/28 08:24:59;;;;;;;9.48;6.07;;;;;;;;;;5111322;28;20050;-72
2022/07/28 08:27:26;;;;;;;8.77;5.97;;;;;;;;;;5110860;28;20095;-76
2022/07/28 08:29:52;;;;;;;7.82;5.50;;;;;;;;;;5109826;28;20111;-73
2022/07/28 08:32:18;;;;;;;7.65;5.10;;;;;;;;;;5110921;28;20039;-74
2022/07/28 08:38:22;;;;;;;10.60;7.00;;;;;;;;;;5111473;27;20802;-73
2022/07/28 08:40:49;;;;;;;8.55;5.53;;;;;;;;;;5110970;28;20036;-73
2022/07/28 08:43:23;;;;;;;8.50;5.93;;;;;;;;;;5111184;28;20387;-73
2022/07/28 08:45:51;;;;;;;10.20;5.63;;;;;;;;;;5110994;28;20468;-73
2022/07/28 08:48:21;;;;;;;8.65;5.43;;;;;;;;;;5110656;28;20026;-74
2022/07/28 08:50:49;;;;;;;9.90;5.60;;;;;;;;;;5111233;28;20476;-73
2022/07/28 08:53:16;;;;;;;8.35;6.10;;;;;;;;;;5111333;28;20020;-73
2022/07/28 08:55:43;;;;;;;8.43;5.30;;;;;;;;;;5110564;28;20032;-73
2022/07/28 08:58:11;;;;;;;9.20;5.95;;;;;;;;;;5110842;28;20546;-73
2022/07/28 09:01:06;;;;;;;8.60;5.70;;;;;;;;;;5111128;27;20454;-74
2022/07/28 09:03:32;;;;;;;8.73;6.15;;;;;;;;;;5109964;28;20035;-73
2022/07/28 09:05:58;;;;;;;8.90;5.38;;;;;;;;;;5111102;28;20069;-74
2022/07/28 09:08:25;;;;;;;8.68;5.95;;;;;;;;;;5110780;28;20028;-75
2022/07/28 09:10:51;;;;;;;8.30;5.00;;;;;;;;;;5109649;28;20391;-73
2022/07/28 09:13:17;;;;;;;9.90;5.57;;;;;;;;;;5111062;28;20035;-73
2022/07/28 09:15:45;;;;;;;7.18;4.97;;;;;;;;;;5110655;28;20411;-74
2022/07/28 09:18:12;;;;;;;10.23;5.40;;;;;;;;;;5110956;28;20027;-73
2022/07/28 09:20:39;;;;;;;6.68;4.32;;;;;;;;;;5110950;28;20054;-73
2022/07/28 09:23:06;;;;;;;8.43;5.50;;;;;;;;;;5110438;28;20024;-73
2022/07/28 09:25:32;;;;;;;7.45;4.60;;;;;;;;;;5110920;28;20027;-79
2022/07/28 09:28:06;;;;;;;9.68;4.80;;;;;;;;;;5109539;28;20475;-77
2022/07/28 09:30:33;;;;;;;7.55;4.80;;;;;;;;;;5109031;28;20027;-78
2022/07/28 09:33:18;;;;;;;6.25;4.28;;;;;;;;;;5110813;28;20043;-82
2022/07/28 09:35:45;;;;;;;5.95;4.32;;;;;;;;;;5110113;28;20032;-76
2022/07/28 09:38:12;;;;;;;8.90;5.30;;;;;;;;;;5109288;28;20441;-78
2022/07/28 09:40:39;;;;;;;7.57;4.53;;;;;;;;;;5109194;28;20043;-76
2022/07/28 09:43:05;;;;;;;8.55;5.07;;;;;;;;;;5110416;28;20024;-76
2022/07/28 09:45:31;;;;;;;9.48;4.38;;;;;;;;;;5110340;28;20528;-75
2022/07/28 09:48:08;;;;;;;7.32;4.57;;;;;;;;;;5110346;28;20030;-75
2022/07/28 09:50:34;;;;;;;7.97;4.65;;;;;;;;;;5109992;28;20028;-76
2022/07/28 09:53:02;;;;;;;7.00;4.55;;;;;;;;;;5110710;28;20023;-74
2022/07/28 09:55:28;;;;;;;8.77;4.68;;;;;;;;;;5110274;28;20099;-73
2022/07/28 09:57:54;;;;;;;6.38;4.00;;;;;;;;;;5109776;28;20093;-75
2022/07/28 10:00:29;;;;;;;5.60;3.83;;;;;;;;;;5108562;28;20126;-75
2022/07/28 10:02:55;;;;;;;6.65;4.30;;;;;;;;;;5108921;28;20028;-75
2022/07/28 10:05:21;;;;;;;6.18;4.10;;;;;;;;;;5109570;28;20376;-73
2022/07/28 10:07:49;;;;;;;6.80;4.35;;;;;;;;;;5108734;28;20042;-74
2022/07/28 10:10:19;;;;;;;6.30;4.32;;;;;;;;;;5108853;28;20095;-76
2022/07/28 10:12:45;;;;;;;6.70;4.28;;;;;;;;;;5095663;28;20024;-76
2022/07/28 10:18:01;;;;;;;7.53;4.50;;;;;;;;;;5096097;28;20031;-74
2022/07/28 10:20:28;;;;;;;6.65;4.18;;;;;;;;;;5096168;28;20028;-75
2022/07/28 10:23:05;;;;;;;6.53;4.57;;;;;;;;;;5096192;28;20020;-75
2022/07/28 10:25:33;;;;;;;7.47;4.72;;;;;;;;;;5095529;28;20031;-74
2022/07/28 10:28:00;;;;;;;7.20;4.32;;;;;;;;;;5094698;28;20017;-77
2022/07/28 10:30:30;;;;;;;6.55;4.40;;;;;;;;;;5095969;28;20030;-76
2022/07/28 10:32:58;;;;;;;7.13;4.45;;;;;;;;;;5095626;28;20021;-73
2022/07/28 10:35:25;;;;;;;6.13;4.22;;;;;;;;;;5095597;28;20095;-73
2022/07/28 10:37:58;;;;;;;6.70;4.15;;;;;;;;;;5095860;28;20021;-75
2022/07/28 10:40:26;;;;;;;6.55;4.22;;;;;;;;;;5095445;28;20035;-75
2022/07/28 10:42:53;;;;;;;7.25;4.32;;;;;;;;;;5094585;28;20057;-75
2022/07/28 10:45:19;;;;;;;6.47;4.38;;;;;;;;;;5094447;28;20024;-76
2022/07/28 10:47:45;;;;;;;9.52;4.18;;;;;;;;;;5095329;28;20100;-75
2022/07/28 10:50:12;;;;;;;5.57;3.65;;;;;;;;;;5095621;28;20398;-76
2022/07/28 10:52:40;;;;;;;5.80;3.97;;;;;;;;;;5094273;28;20057;-75
2022/07/28 10:55:32;;;;;;;6.55;3.88;;;;;;;;;;5093811;28;20379;-75
2022/07/28 10:58:20;;;;;;;8.10;3.92;;;;;;;;;;5090350;28;20408;-75
2022/07/28 11:01:01;;;;;;;5.72;3.55;;;;;;;;;;5094562;28;20381;-75
2022/07/28 11:03:45;;;;;;;5.13;3.40;;;;;;;;;;5095408;28;20099;-75
2022/07/28 11:06:23;;;;;;;5.38;3.40;;;;;;;;;;5095377;28;20047;-75
2022/07/28 11:08:51;;;;;;;5.43;3.53;;;;;;;;;;5093639;28;20027;-75
2022/07/28 11:11:36;;;;;;;5.95;3.60;;;;;;;;;;5094999;28;20039;-75
2022/07/28 11:14:22;;;;;;;6.35;3.35;;;;;;;;;;5094802;28;20551;-75
2022/07/28 11:17:00;;;;;;;4.80;3.03;;;;;;;;;;5095079;28;20074;-74
2022/07/28 11:32:49;;;;;;;4.45;3.17;;;;;;;;;;5111057;27;20449;-77
2022/07/28 11:35:16;;;;;;;5.30;3.75;;;;;;;;;;5111074;28;20069;-75
2022/07/28 11:38:00;;;;;;;4.35;3.20;;;;;;;;;;5110982;28;20024;-75
2022/07/28 11:40:29;;;;;;;5.43;2.95;;;;;;;;;;5109844;28;20484;-76
2022/07/28 11:43:19;;;;;;;4.82;3.30;;;;;;;;;;5109442;28;20032;-75
2022/07/28 11:45:45;;;;;;;4.85;2.90;;;;;;;;;;5104827;28;20032;-75
2022/07/28 11:48:14;;;;;;;3.90;2.75;;;;;;;;;;5110763;28;20031;-75
2022/07/28 11:50:41;;;;;;;3.92;2.95;;;;;;;;;;5109432;28;20568;-76
2022/07/28 11:53:07;;;;;;;4.22;2.75;;;;;;;;;;5110218;28;20028;-75
2022/07/28 11:55:33;;;;;;;4.35;3.10;;;;;;;;;;5110522;28;20480;-75
2022/07/28 11:58:01;;;;;;;5.13;3.45;;;;;;;;;;5110560;28;20034;-76
2022/07/28 12:00:28;;;;;;;5.00;3.20;;;;;;;;;;5110018;28;20016;-76
2022/07/28 12:02:56;;;;;;;4.72;3.10;;;;;;;;;;5110434;28;20385;-75
2022/07/28 12:05:22;;;;;;;4.85;2.90;;;;;;;;;;5110443;28;20016;-77
2022/07/28 12:07:50;;;;;;;4.90;3.15;;;;;;;;;;5110035;28;20024;-75
2022/07/28 12:10:24;;;;;;;4.45;3.13;;;;;;;;;;5110354;28;20060;-75
2022/07/28 12:12:51;;;;;;;4.30;3.10;;;;;;;;;;5109993;28;20026;-74
2022/07/28 12:15:18;;;;;;;4.85;3.20;;;;;;;;;;5109890;28;20032;-74
2022/07/28 12:17:44;;;;;;;4.25;2.80;;;;;;;;;;5110254;28;20024;-73
2022/07/28 12:20:12;;;;;;;4.70;3.08;;;;;;;;;;5110207;28;20444;-74
2022/07/28 12:22:38;;;;;;;6.20;3.50;;;;;;;;;;5109694;28;20024;-72
2022/07/28 12:25:04;;;;;;;5.80;3.25;;;;;;;;;;5110085;28;20052;-72
2022/07/28 12:27:30;;;;;;;4.38;3.05;;;;;;;;;;5109995;28;20028;-73
2022/07/28 12:30:00;;;;;;;5.00;3.17;;;;;;;;;;5109100;28;20469;-71
2022/07/28 12:32:31;;;;;;;4.43;3.10;;;;;;;;;;5103784;28;20408;-73
2022/07/28 12:34:57;;;;;;;4.57;3.55;;;;;;;;;;5096329;28;20099;-72
2022/07/28 12:37:23;;;;;;;4.55;2.95;;;;;;;;;;5094683;28;20427;-72
2022/07/28 12:39:52;;;;;;;4.40;3.08;;;;;;;;;;5096185;28;20040;-72
2022/07/28 12:42:18;;;;;;;4.88;3.40;;;;;;;;;;5095836;28;20497;-72
2022/07/28 12:44:50;;;;;;;5.63;4.07;;;;;;;;;;5096059;28;20490;-72
2022/07/28 12:47:24;;;;;;;6.35;4.50;;;;;;;;;;5096122;28;20385;-72
2022/07/28 12:50:06;;;;;;;6.00;4.40;;;;;;;;;;5095658;28;20028;-72
2022/07/28 12:52:32;;;;;;;6.75;4.30;;;;;;;;;;5095932;28;20039;-71
2022/07/28 12:54:58;;;;;;;5.80;4.05;;;;;;;;;;5095825;28;20362;-71
2022/07/28 12:57:46;;;;;;;5.35;4.05;;;;;;;;;;5094123;28;20095;-70
2022/07/28 13:00:14;;;;;;;5.25;3.72;;;;;;;;;;5095588;28;20130;-71
2022/07/28 13:02:40;;;;;;;5.50;3.80;;;;;;;;;;5094398;28;20032;-71
2022/07/28 13:05:06;;;;;;;6.47;4.65;;;;;;;;;;5095229;28;20031;-71
2022/07/28 13:07:33;;;;;;;5.60;4.22;;;;;;;;;;5095692;28;20055;-71
2022/07/28 13:10:02;;;;;;;5.82;4.07;;;;;;;;;;5095678;28;20031;-72
2022/07/28 13:12:29;;;;;;;5.43;4.15;;;;;;;;;;5095253;28;20028;-72
2022/07/28 13:14:56;;;;;;;7.22;4.60;;;;;;;;;;5095517;28;20361;-71
2022/07/28 13:17:23;;;;;;;6.90;4.85;;;;;;;;;;5093878;28;20380;-72
2022/07/28 13:19:50;;;;;;;5.10;3.67;;;;;;;;;;5095464;28;20491;-71
2022/07/28 13:22:31;;;;;;;6.78;4.28;;;;;;;;;;5095361;28;20040;-71
2022/07/28 13:24:57;;;;;;;5.85;3.92;;;;;;;;;;5094929;28;20530;-71
2022/07/28 13:27:23;;;;;;;5.93;4.30;;;;;;;;;;5095346;28;20104;-72
2022/07/28 13:29:50;;;;;;;6.60;3.80;;;;;;;;;;5095213;28;20051;-72
2022/07/28 13:32:16;;;;;;;7.90;5.00;;;;;;;;;;5093445;28;20040;-72
2022/07/28 13:34:43;;;;;;;8.07;5.40;;;;;;;;;;5095130;28;20063;-71
2022/07/28 13:37:10;;;;;;;8.57;5.45;;;;;;;;;;5094962;28;20089;-70
2022/07/28 13:39:37;;;;;;;8.18;5.38;;;;;;;;;;5094572;28;20024;-72
2022/07/28 13:42:03;;;;;;;9.45;5.28;;;;;;;;;;5094958;28;20105;-70
2022/07/28 13:44:30;;;;;;;7.25;5.32;;;;;;;;;;5094009;28;20043;-71
2022/07/28 13:46:57;;;;;;;7.30;5.20;;;;;;;;;;5092982;28;20051;-72
2022/07/28 13:49:23;;;;;;;7.55;5.43;;;;;;;;;;5094724;28;20027;-70
2022/07/28 13:51:50;;;;;;;7.75;5.13;;;;;;;;;;5094812;28;20115;-72
2022/07/28 13:54:16;;;;;;;7.47;5.05;;;;;;;;;;5094334;28;20027;-72
2022/07/28 13:56:43;;;;;;;6.95;5.20;;;;;;;;;;5094637;28;20473;-70
2022/07/28 13:59:09;;;;;;;9.52;5.43;;;;;;;;;;5094708;28;20530;-71
2022/07/28 14:01:36;;;;;;;10.90;5.80;;;;;;;;;;5094125;28;20036;-71
2022/07/28 14:04:03;;;;;;;8.75;5.88;;;;;;;;;;5094526;28;20031;-70
2022/07/28 14:06:29;;;;;;;9.60;6.28;;;;;;;;;;5092812;28;20027;-71
2022/07/28 14:08:55;;;;;;;7.72;5.65;;;;;;;;;;5093198;28;20020;-70
2022/07/28 14:11:22;;;;;;;8.50;6.05;;;;;;;;;;5094376;28;20032;-71
2022/07/28 14:13:50;;;;;;;9.32;6.13;;;;;;;;;;5093891;28;20072;-71
2022/07/28 14:16:17;;;;;;;8.27;6.10;;;;;;;;;;5094232;28;20477;-71
2022/07/28 14:18:44;;;;;;;8.27;6.32;;;;;;;;;;5094144;28;20020;-71
2022/07/28 14:21:10;;;;;;;8.80;5.95;;;;;;;;;;5093677;28;20032;-71
2022/07/28 14:23:36;;;;;;;9.50;6.57;;;;;;;;;;5094205;28;20378;-71
2022/07/28 14:26:02;;;;;;;8.55;6.22;;;;;;;;;;5093987;28;20103;-71
2022/07/28 14:28:28;;;;;;;8.10;6.32;;;;;;;;;;5093555;28;20024;-71
2022/07/28 14:30:54;;;;;;;8.98;6.43;;;;;;;;;;5093920;28;20036;-70
2022/07/28 14:33:21;;;;;;;10.00;6.68;;;;;;;;;;5094021;28;20587;-71
2022/07/28 14:35:47;;;;;;;9.77;6.60;;;;;;;;;;5092302;28;20386;-72
2022/07/28 14:38:13;;;;;;;7.50;5.60;;;;;;;;;;5092588;28;20423;-72
2022/07/28 14:40:40;;;;;;;11.10;6.60;;;;;;;;;;5093733;28;20043;-72
2022/07/28 14:43:07;;;;;;;9.55;6.80;;;;;;;;;;5093364;28;20044;-71
2022/07/28 14:45:33;;;;;;;8.35;6.20;;;;;;;;;;5093709;28;20031;-71
2022/07/28 14:47:59;;;;;;;8.43;6.43;;;;;;;;;;5093685;28;20048;-70
2022/07/28 14:50:26;;;;;;;10.00;6.70;;;;;;;;;;5093297;28;20027;-70
2022/07/28 14:52:52;;;;;;;10.02;6.55;;;;;;;;;;5093682;28;20025;-71
2022/07/28 14:55:18;;;;;;;8.77;6.32;;;;;;;;;;5093282;28;20501;-71
2022/07/28 14:57:44;;;;;;;9.27;6.85;;;;;;;;;;5093163;28;20024;-71
2022/07/28 15:00:12;;;;;;;9.27;6.32;;;;;;;;;;5093444;28;20027;-71
2022/07/28 15:02:38;;;;;;;9.73;6.70;;;;;;;;;;5092127;28;20330;-71
2022/07/28 15:05:05;;;;;;;11.10;6.65;;;;;;;;;;5093292;28;20024;-71
2022/07/28 15:07:31;;;;;;;8.98;6.60;;;;;;;;;;5093473;28;20020;-71
2022/07/28 15:09:57;;;;;;;9.88;6.63;;;;;;;;;;5092965;28;20017;-71
2022/07/28 15:12:23;;;;;;;8.65;6.15;;;;;;;;;;5093520;28;20427;-72
2022/07/28 15:14:49;;;;;;;8.23;5.70;;;;;;;;;;5092056;28;20546;-71
2022/07/28 15:17:16;;;;;;;8.70;5.90;;;;;;;;;;5092016;28;20545;-71
2022/07/28 15:19:42;;;;;;;8.75;6.88;;;;;;;;;;5093229;28;20035;-72
2022/07/28 15:22:08;;;;;;;9.43;6.95;;;;;;;;;;5093395;28;20032;-71
2022/07/28 15:24:35;;;;;;;8.70;7.05;;;;;;;;;;5092805;28;20020;-72
2022/07/28 15:27:02;;;;;;;8.65;6.38;;;;;;;;;;5093263;28;20027;-71
2022/07/28 15:29:29;;;;;;;9.82;6.60;;;;;;;;;;5093222;28;20072;-71
2022/07/28 15:31:55;;;;;;;10.10;7.32;;;;;;;;;;5092745;28;20040;-72
2022/07/28 15:34:21;;;;;;;9.15;6.50;;;;;;;;;;5091866;28;20035;-72
2022/07/28 15:36:48;;;;;;;8.07;5.95;;;;;;;;;;5093186;28;20133;-72
2022/07/28 15:39:14;;;;;;;10.05;6.72;;;;;;;;;;5092767;28;20045;-72
2022/07/28 15:41:41;;;;;;;9.45;7.18;;;;;;;;;;5093058;28;20051;-72
2022/07/28 15:44:07;;;;;;;9.48;6.70;;;;;;;;;;5093307;28;20493;-72
2022/07/28 15:46:33;;;;;;;8.77;6.68;;;;;;;;;;5092841;28;20023;-73
2022/07/28 15:49:03;;;;;;;8.00;5.90;;;;;;;;;;5091768;28;20073;-72
2022/07/28 15:51:29;;;;;;;11.48;6.93;;;;;;;;;;5092993;28;20028;-72
2022/07/28 15:53:55;;;;;;;11.57;7.30;;;;;;;;;;5092612;28;20024;-72
2022/07/28 15:56:25;;;;;;;9.63;7.85;;;;;;;;;;5092972;28;20024;-71
2022/07/28 15:58:51;;;;;;;10.40;6.72;;;;;;;;;;5093016;28;20513;-72
2022/07/28 16:01:17;;;;;;;11.68;7.93;;;;;;;;;;5092360;28;20102;-72
2022/07/28 16:03:43;;;;;;;11.90;7.05;;;;;;;;;;5092966;28;20046;-71
2022/07/28 16:06:09;;;;;;;10.00;7.50;;;;;;;;;;5092437;28;20027;-72